createdAt,value
2024-02-19T00:01:55.460Z,72.79
2024-02-19T00:04:27.928Z,73.05
2024-02-19T00:07:00.498Z,72.96
2024-02-19T00:09:32.932Z,72.93
2024-02-19T00:12:05.886Z,72.81
2024-02-19T00:14:38.172Z,72.80
2024-02-19T00:17:10.594Z,73.00
2024-02-19T00:19:42.927Z,72.97
2024-02-19T00:22:15.651Z,72.98
2024-02-19T00:24:48.114Z,73.09
2024-02-19T00:27:20.813Z,73.05
2024-02-19T00:29:53.715Z,73.01
2024-02-19T00:32:26.068Z,73.21
2024-02-19T00:34:58.418Z,73.27
2024-02-19T00:37:30.748Z,73.24
2024-02-19T00:40:04.414Z,73.31
2024-02-19T00:42:37.129Z,73.26
2024-02-19T00:45:11.196Z,73.56
2024-02-19T00:47:43.565Z,73.51
2024-02-19T00:50:15.896Z,73.72
2024-02-19T00:52:48.212Z,73.73
2024-02-19T00:55:24.017Z,73.70
2024-02-19T00:57:54.718Z,73.66
2024-02-19T01:00:27.896Z,73.60
2024-02-19T01:03:00.526Z,73.74
2024-02-19T01:05:33.553Z,73.72
2024-02-19T01:08:06.280Z,73.88
2024-02-19T01:10:38.564Z,73.93
2024-02-19T01:13:11.180Z,74.10
2024-02-19T01:15:43.556Z,74.09
2024-02-19T01:18:16.918Z,73.95
2024-02-19T01:20:49.118Z,73.98
2024-02-19T01:23:21.508Z,74.07
2024-02-19T01:25:54.660Z,73.99
2024-02-19T01:28:27.018Z,74.18
2024-02-19T01:30:59.998Z,74.12
2024-02-19T01:33:35.340Z,74.21
2024-02-19T01:36:08.475Z,74.19
2024-02-19T01:38:42.783Z,74.26
2024-02-19T01:41:15.196Z,74.39
2024-02-19T01:43:47.480Z,74.33
2024-02-19T01:46:19.900Z,74.52
2024-02-19T01:48:52.943Z,74.55
2024-02-19T01:51:26.097Z,74.68
2024-02-19T01:53:59.631Z,74.70
2024-02-19T01:56:32.611Z,74.86
2024-02-19T01:59:08.690Z,74.85
2024-02-19T02:01:42.267Z,74.99
2024-02-19T02:04:17.135Z,74.98
2024-02-19T02:06:50.446Z,75.08
2024-02-19T02:09:23.374Z,75.27
2024-02-19T02:11:56.149Z,75.08
2024-02-19T02:14:29.066Z,75.15
2024-02-19T02:17:01.307Z,75.22
2024-02-19T02:19:33.740Z,75.36
2024-02-19T02:22:06.819Z,75.35
2024-02-19T02:24:39.692Z,75.29
2024-02-19T02:27:12.247Z,75.48
2024-02-19T02:29:44.572Z,75.56
2024-02-19T02:32:16.769Z,75.53
2024-02-19T02:34:49.210Z,75.64
2024-02-19T02:37:21.957Z,75.69
2024-02-19T02:39:54.266Z,75.70
2024-02-19T02:42:26.532Z,75.88
2024-02-19T02:44:58.856Z,75.71
2024-02-19T02:47:31.161Z,75.72
2024-02-19T02:50:03.429Z,75.98
2024-02-19T02:52:35.696Z,76.04
2024-02-19T02:55:09.547Z,75.93
2024-02-19T02:57:41.885Z,76.05
2024-02-19T03:00:15.928Z,76.03
2024-02-19T03:02:48.304Z,75.99
2024-02-19T03:05:20.853Z,75.95
2024-02-19T03:07:53.103Z,76.20
2024-02-19T03:10:25.854Z,76.14
2024-02-19T03:12:58.223Z,76.20
2024-02-19T03:15:30.500Z,76.21
2024-02-19T03:18:03.409Z,76.19
2024-02-19T03:20:36.102Z,76.10
2024-02-19T03:23:08.450Z,76.08
2024-02-19T03:25:40.744Z,76.03
2024-02-19T03:28:13.019Z,76.47
2024-02-19T03:30:45.441Z,76.32
2024-02-19T03:33:17.996Z,76.49
2024-02-19T03:35:52.963Z,76.55
2024-02-19T03:38:26.779Z,76.50
2024-02-19T03:40:59.196Z,76.43
2024-02-19T03:43:31.449Z,76.36
2024-02-19T03:46:06.699Z,76.56
2024-02-19T03:48:39.502Z,76.80
2024-02-19T03:51:12.458Z,76.76
2024-02-19T03:53:44.751Z,76.61
2024-02-19T03:56:17.098Z,76.64
2024-02-19T03:58:49.787Z,76.54
2024-02-19T04:01:22.108Z,76.89
2024-02-19T04:03:55.015Z,76.79
2024-02-19T04:06:27.525Z,76.71
2024-02-19T04:08:59.944Z,76.63
2024-02-19T04:11:32.363Z,76.61
2024-02-19T04:14:04.641Z,76.59
2024-02-19T04:16:36.862Z,76.68
2024-02-19T04:19:09.288Z,76.67
2024-02-19T04:21:47.819Z,76.82
2024-02-19T04:24:20.112Z,76.88
2024-02-19T04:26:52.315Z,76.71
2024-02-19T04:29:24.624Z,76.93
2024-02-19T04:31:57.196Z,76.89
2024-02-19T04:34:29.720Z,76.87
2024-02-19T04:37:03.921Z,77.04
2024-02-19T04:39:38.100Z,76.82
2024-02-19T04:42:10.670Z,76.89
2024-02-19T04:44:42.931Z,76.92
2024-02-19T04:47:15.218Z,77.07
2024-02-19T04:49:48.676Z,76.92
2024-02-19T04:52:20.950Z,77.15
2024-02-19T04:54:53.462Z,77.17
2024-02-19T04:57:25.778Z,76.95
2024-02-19T04:59:58.118Z,77.22
2024-02-19T05:02:30.434Z,77.27
2024-02-19T05:05:02.843Z,77.13
2024-02-19T05:07:35.829Z,77.51
2024-02-19T05:10:10.301Z,77.35
2024-02-19T05:12:42.663Z,77.53
2024-02-19T05:15:15.204Z,77.66
2024-02-19T05:17:47.483Z,77.58
2024-02-19T05:20:19.984Z,77.68
2024-02-19T05:22:53.025Z,77.53
2024-02-19T05:25:25.324Z,77.76
2024-02-19T05:27:59.681Z,77.87
2024-02-19T05:30:32.008Z,77.63
2024-02-19T05:33:04.280Z,77.98
2024-02-19T05:35:36.707Z,78.16
2024-02-19T05:38:09.863Z,78.35
2024-02-19T05:40:42.237Z,78.43
2024-02-19T05:43:15.030Z,78.72
2024-02-19T05:45:47.481Z,78.66
2024-02-19T05:48:19.945Z,78.70
2024-02-19T05:50:53.191Z,78.80
2024-02-19T05:53:25.729Z,79.05
2024-02-19T05:55:57.968Z,78.99
2024-02-19T05:58:30.227Z,79.27
2024-02-19T06:01:02.644Z,79.24
2024-02-19T06:03:36.946Z,79.32
2024-02-19T06:06:09.672Z,79.23
2024-02-19T06:08:44.692Z,79.43
2024-02-19T06:11:17.230Z,79.51
2024-02-19T06:13:49.564Z,79.53
2024-02-19T06:16:21.975Z,79.45
2024-02-19T06:18:54.512Z,79.58
2024-02-19T06:21:27.034Z,79.57
2024-02-19T06:23:59.489Z,79.36
2024-02-19T06:26:31.825Z,79.30
2024-02-19T06:29:04.693Z,79.37
2024-02-19T06:31:36.936Z,79.15
2024-02-19T06:34:09.448Z,79.32
2024-02-19T06:36:41.924Z,79.08
2024-02-19T06:39:14.302Z,79.23
2024-02-19T06:41:46.582Z,79.18
2024-02-19T06:44:18.843Z,79.04
2024-02-19T06:46:51.145Z,79.00
2024-02-19T06:49:23.893Z,78.87
2024-02-19T06:51:56.264Z,78.85
2024-02-19T06:54:31.337Z,78.81
2024-02-19T06:57:05.384Z,78.72
2024-02-19T06:59:37.654Z,78.68
2024-02-19T07:02:10.247Z,78.57
2024-02-19T07:04:43.299Z,78.52
2024-02-19T07:07:16.009Z,78.42
2024-02-19T07:09:48.628Z,78.18
2024-02-19T07:12:20.928Z,78.14
2024-02-19T07:14:53.178Z,78.33
2024-02-19T07:17:25.523Z,77.89
2024-02-19T07:19:57.968Z,78.04
2024-02-19T07:22:30.497Z,78.08
2024-02-19T07:25:10.404Z,77.93
2024-02-19T07:27:49.831Z,77.90
2024-02-19T07:30:22.831Z,77.81
2024-02-19T07:32:55.414Z,77.84
2024-02-19T07:35:27.849Z,77.76
2024-02-19T07:38:01.001Z,77.75
2024-02-19T07:40:35.456Z,77.70
2024-02-19T07:43:08.639Z,77.70
2024-02-19T07:45:41.518Z,77.59
2024-02-19T07:48:13.972Z,77.91
2024-02-19T07:50:46.423Z,77.75
2024-02-19T07:53:18.826Z,77.84
2024-02-19T07:55:51.279Z,77.76
2024-02-19T07:58:24.757Z,77.80
2024-02-19T08:00:57.243Z,77.66
2024-02-19T08:03:29.788Z,77.78
2024-02-19T08:06:02.226Z,77.70
2024-02-19T08:08:34.617Z,77.72
2024-02-19T08:11:07.206Z,77.68
2024-02-19T08:13:39.802Z,77.83
2024-02-19T08:16:12.322Z,77.85
2024-02-19T08:18:44.842Z,77.88
2024-02-19T08:21:18.021Z,78.06
2024-02-19T08:23:50.547Z,78.07
2024-02-19T08:26:23.473Z,78.16
2024-02-19T08:28:55.688Z,78.60
2024-02-19T08:31:28.912Z,78.74
2024-02-19T08:34:01.615Z,79.09
2024-02-19T08:36:34.506Z,78.85
2024-02-19T08:39:06.989Z,79.19
2024-02-19T08:41:39.375Z,79.18
2024-02-19T08:44:11.529Z,79.20
2024-02-19T08:46:43.737Z,79.13
2024-02-19T08:49:16.162Z,79.58
2024-02-19T08:51:48.581Z,79.51
2024-02-19T08:54:20.773Z,79.49
2024-02-19T08:56:53.126Z,79.53
2024-02-19T08:59:25.389Z,79.44
2024-02-19T09:01:59.010Z,79.63
2024-02-19T09:04:32.118Z,79.48
2024-02-19T09:07:05.774Z,79.42
2024-02-19T09:09:38.422Z,79.22
2024-02-19T09:12:11.612Z,78.85
2024-02-19T09:14:43.813Z,78.66
2024-02-19T09:17:16.461Z,78.72
2024-02-19T09:19:48.828Z,78.67
2024-02-19T09:22:21.939Z,78.71
2024-02-19T09:24:54.370Z,78.45
2024-02-19T09:27:26.763Z,78.51
2024-02-19T09:29:59.096Z,78.06
2024-02-19T09:32:31.478Z,78.26
2024-02-19T09:35:05.040Z,78.31
2024-02-19T09:37:37.442Z,78.36
2024-02-19T09:40:14.573Z,78.58
2024-02-19T09:42:48.968Z,78.49
2024-02-19T09:45:22.676Z,78.45
2024-02-19T09:48:00.918Z,78.49
2024-02-19T09:50:34.190Z,78.08
2024-02-19T09:53:13.505Z,78.12
2024-02-19T09:55:46.378Z,78.11
2024-02-19T09:58:18.925Z,77.97
2024-02-19T10:00:51.557Z,77.87
2024-02-19T10:03:24.379Z,77.87
2024-02-19T10:05:56.808Z,78.04
2024-02-19T10:08:29.209Z,78.04
2024-02-19T10:11:08.209Z,78.00
2024-02-19T10:13:43.078Z,77.89
2024-02-19T10:16:15.745Z,78.00
2024-02-19T10:18:48.203Z,77.89
2024-02-19T10:21:20.951Z,77.94
2024-02-19T10:23:53.215Z,78.08
2024-02-19T10:26:25.879Z,78.04
2024-02-19T10:28:59.434Z,77.80
2024-02-19T10:31:32.814Z,77.60
2024-02-19T10:34:05.305Z,77.47
2024-02-19T10:36:38.534Z,77.31
2024-02-19T10:39:11.257Z,77.55
2024-02-19T10:41:43.492Z,77.57
2024-02-19T10:44:18.416Z,77.58
2024-02-19T10:46:51.221Z,77.79
2024-02-19T10:49:24.586Z,77.86
2024-02-19T10:51:58.408Z,77.83
2024-02-19T10:54:31.343Z,77.67
2024-02-19T10:57:10.197Z,77.51
2024-02-19T10:59:44.392Z,77.49
2024-02-19T11:02:26.783Z,77.54
2024-02-19T11:05:02.491Z,77.26
2024-02-19T11:07:36.443Z,77.15
2024-02-19T11:10:11.009Z,76.95
2024-02-19T11:12:44.376Z,77.02
2024-02-19T11:15:21.906Z,76.84
2024-02-19T11:17:59.679Z,76.74
2024-02-19T11:20:33.300Z,76.77
2024-02-19T11:23:05.830Z,76.81
2024-02-19T11:25:39.300Z,76.82
2024-02-19T11:28:12.684Z,76.69
2024-02-19T11:30:47.220Z,76.82
2024-02-19T11:33:19.488Z,76.77
2024-02-19T11:35:51.905Z,76.65
2024-02-19T11:38:24.778Z,76.87
2024-02-19T11:40:57.567Z,76.91
2024-02-19T11:43:30.295Z,76.99
2024-02-19T11:46:02.765Z,77.00
2024-02-19T11:48:37.652Z,76.85
2024-02-19T11:51:11.112Z,76.99
2024-02-19T11:53:43.523Z,76.83
2024-02-19T11:56:19.529Z,76.90
2024-02-19T11:58:51.585Z,76.89
2024-02-19T12:01:25.455Z,77.06
2024-02-19T12:03:58.048Z,76.95
2024-02-19T12:06:30.927Z,76.64
2024-02-19T12:09:03.747Z,76.87
2024-02-19T12:11:36.899Z,76.63
2024-02-19T12:14:10.131Z,76.45
2024-02-19T12:16:43.039Z,76.13
2024-02-19T12:19:15.307Z,76.07
2024-02-19T12:21:47.658Z,76.13
2024-02-19T12:24:20.457Z,76.19
2024-02-19T12:26:52.865Z,76.04
2024-02-19T12:29:25.264Z,75.87
2024-02-19T12:31:57.613Z,75.73
2024-02-19T12:34:30.011Z,75.83
2024-02-19T12:37:02.592Z,76.05
2024-02-19T12:39:35.707Z,76.01
2024-02-19T12:42:11.283Z,75.81
2024-02-19T12:44:44.083Z,75.76
2024-02-19T12:47:16.744Z,75.78
2024-02-19T12:49:50.055Z,75.51
2024-02-19T12:52:28.780Z,75.65
2024-02-19T12:55:01.536Z,75.53
2024-02-19T12:57:33.861Z,75.47
2024-02-19T13:00:09.372Z,75.47
2024-02-19T13:02:41.997Z,75.31
2024-02-19T13:05:14.409Z,75.11
2024-02-19T13:07:49.368Z,74.97
2024-02-19T13:10:22.108Z,74.98
2024-02-19T13:12:54.704Z,75.18
2024-02-19T13:15:27.024Z,74.95
2024-02-19T13:17:59.415Z,74.93
2024-02-19T13:20:32.740Z,74.94
2024-02-19T13:23:05.437Z,74.70
2024-02-19T13:25:37.711Z,74.36
2024-02-19T13:28:11.820Z,74.47
2024-02-19T13:30:45.009Z,74.77
2024-02-19T13:33:17.665Z,74.57
2024-02-19T13:35:50.085Z,74.58
2024-02-19T13:38:23.212Z,74.41
2024-02-19T13:40:57.078Z,74.50
2024-02-19T13:43:29.923Z,74.57
2024-02-19T13:46:05.346Z,74.57
2024-02-19T13:48:37.268Z,74.76
2024-02-19T13:51:10.075Z,74.88
2024-02-19T13:53:42.660Z,74.92
2024-02-19T13:56:15.078Z,75.34
2024-02-19T13:58:47.498Z,75.38
2024-02-19T14:01:20.217Z,75.66
2024-02-19T14:03:52.909Z,75.43
2024-02-19T14:06:25.937Z,75.59
2024-02-19T14:08:58.535Z,75.62
2024-02-19T14:11:31.251Z,75.65
2024-02-19T14:14:04.976Z,75.72
2024-02-19T14:16:40.376Z,76.00
2024-02-19T14:19:12.815Z,76.11
2024-02-19T14:21:45.238Z,76.20
2024-02-19T14:24:18.088Z,76.40
2024-02-19T14:26:50.862Z,76.58
2024-02-19T14:29:23.769Z,76.70
2024-02-19T14:31:56.614Z,76.93
2024-02-19T14:34:29.027Z,76.88
2024-02-19T14:37:01.729Z,76.98
2024-02-19T14:39:34.274Z,77.08
2024-02-19T14:42:06.949Z,77.12
2024-02-19T14:44:39.360Z,77.38
2024-02-19T14:47:12.499Z,77.41
2024-02-19T14:49:44.866Z,77.44
2024-02-19T14:52:17.423Z,77.71
2024-02-19T14:54:50.597Z,77.98
2024-02-19T14:57:22.957Z,78.18
2024-02-19T14:59:55.297Z,78.08
2024-02-19T15:02:27.640Z,78.24
2024-02-19T15:05:00.886Z,78.50
2024-02-19T15:07:33.707Z,78.29
2024-02-19T15:10:07.743Z,78.55
2024-02-19T15:12:40.097Z,78.61
2024-02-19T15:15:15.479Z,78.72
2024-02-19T15:17:48.090Z,79.00
2024-02-19T15:20:20.836Z,78.98
2024-02-19T15:22:53.418Z,78.92
2024-02-19T15:25:25.827Z,79.11
2024-02-19T15:27:58.433Z,79.07
2024-02-19T15:30:31.237Z,79.14
2024-02-19T15:33:03.785Z,79.14
2024-02-19T15:35:36.250Z,79.12
2024-02-19T15:38:10.306Z,79.19
2024-02-19T15:40:43.668Z,79.34
2024-02-19T15:43:15.998Z,79.30
2024-02-19T15:45:48.424Z,79.49
2024-02-19T15:48:20.872Z,79.63
2024-02-19T15:50:54.471Z,79.55
2024-02-19T15:53:29.273Z,79.70
2024-02-19T15:56:02.059Z,79.56
2024-02-19T15:58:35.705Z,79.55
2024-02-19T16:01:09.006Z,79.68
2024-02-19T16:03:41.551Z,79.67
2024-02-19T16:06:14.706Z,79.61
2024-02-19T16:08:48.037Z,79.72
2024-02-19T16:11:20.489Z,79.81
2024-02-19T16:13:53.283Z,79.98
2024-02-19T16:16:25.877Z,79.99
2024-02-19T16:18:58.352Z,80.00
2024-02-19T16:21:30.831Z,80.20
2024-02-19T16:24:03.202Z,79.97
2024-02-19T16:26:35.496Z,79.94
2024-02-19T16:29:07.950Z,79.98
2024-02-19T16:31:40.360Z,80.04
2024-02-19T16:34:13.503Z,80.00
2024-02-19T16:36:46.474Z,79.87
2024-02-19T16:39:18.866Z,79.76
2024-02-19T16:41:52.147Z,79.85
2024-02-19T16:44:24.912Z,79.82
2024-02-19T16:46:57.557Z,79.81
2024-02-19T16:49:29.921Z,79.77
2024-02-19T16:52:02.960Z,79.80
2024-02-19T16:54:35.307Z,79.59
2024-02-19T16:57:08.081Z,79.54
2024-02-19T16:59:40.906Z,79.44
2024-02-19T17:02:14.020Z,79.20
2024-02-19T17:04:49.708Z,79.12
2024-02-19T17:07:23.107Z,78.81
2024-02-19T17:09:55.620Z,78.92
2024-02-19T17:12:30.097Z,78.58
2024-02-19T17:15:04.022Z,78.44
2024-02-19T17:17:36.853Z,78.20
2024-02-19T17:20:11.555Z,78.45
2024-02-19T17:22:44.164Z,78.21
2024-02-19T17:25:16.534Z,78.26
2024-02-19T17:27:49.879Z,78.07
2024-02-19T17:30:22.669Z,78.07
2024-02-19T17:32:55.200Z,78.24
2024-02-19T17:35:29.212Z,78.13
2024-02-19T17:38:02.158Z,78.09
2024-02-19T17:40:35.137Z,78.18
2024-02-19T17:43:08.416Z,78.30
2024-02-19T17:45:41.779Z,78.26
2024-02-19T17:48:15.882Z,78.19
2024-02-19T17:50:51.642Z,78.37
2024-02-19T17:53:23.853Z,78.09
2024-02-19T17:55:56.124Z,78.16
2024-02-19T17:58:28.607Z,78.39
2024-02-19T18:01:01.402Z,78.34
2024-02-19T18:03:33.837Z,78.68
2024-02-19T18:06:09.481Z,78.47
2024-02-19T18:08:42.148Z,78.63
2024-02-19T18:11:14.887Z,78.74
2024-02-19T18:13:47.211Z,78.80
2024-02-19T18:16:20.003Z,78.80
2024-02-19T18:18:52.530Z,78.76
2024-02-19T18:21:25.033Z,78.80
2024-02-19T18:23:58.969Z,78.81
2024-02-19T18:26:32.286Z,78.79
2024-02-19T18:29:04.673Z,78.92
2024-02-19T18:31:39.021Z,78.76
2024-02-19T18:34:11.612Z,78.79
2024-02-19T18:36:44.065Z,78.65
2024-02-19T18:39:16.521Z,78.51
2024-02-19T18:41:50.806Z,78.51
2024-02-19T18:44:23.838Z,78.59
2024-02-19T18:46:56.219Z,78.37
2024-02-19T18:49:32.992Z,78.28
2024-02-19T18:52:07.449Z,78.17
2024-02-19T18:54:39.985Z,78.03
2024-02-19T18:57:12.263Z,77.96
2024-02-19T18:59:45.012Z,77.79
2024-02-19T19:02:17.539Z,77.80
2024-02-19T19:04:50.202Z,77.68
2024-02-19T19:07:23.244Z,77.69
2024-02-19T19:09:58.165Z,77.50
2024-02-19T19:12:32.388Z,77.59
2024-02-19T19:15:08.947Z,77.54
2024-02-19T19:17:42.050Z,77.50
2024-02-19T19:20:15.579Z,77.38
2024-02-19T19:22:48.123Z,77.37
2024-02-19T19:25:21.337Z,77.43
2024-02-19T19:27:54.259Z,77.26
2024-02-19T19:30:27.111Z,77.35
2024-02-19T19:32:59.598Z,77.53
2024-02-19T19:35:32.682Z,77.39
2024-02-19T19:38:05.731Z,77.30
2024-02-19T19:40:38.249Z,77.20
2024-02-19T19:43:11.113Z,77.24
2024-02-19T19:45:43.639Z,77.18
2024-02-19T19:48:16.842Z,77.13
2024-02-19T19:50:49.284Z,77.07
2024-02-19T19:53:21.591Z,77.15
2024-02-19T19:55:55.283Z,77.15
2024-02-19T19:58:32.361Z,76.98
2024-02-19T20:01:06.256Z,77.16
2024-02-19T20:03:39.167Z,77.09
2024-02-19T20:06:12.219Z,77.20
2024-02-19T20:08:47.694Z,77.23
2024-02-19T20:11:20.097Z,77.29
2024-02-19T20:13:52.457Z,77.31
2024-02-19T20:16:25.890Z,77.40
2024-02-19T20:18:58.482Z,77.34
2024-02-19T20:21:30.951Z,77.25
2024-02-19T20:24:03.609Z,77.39
2024-02-19T20:26:39.040Z,77.39
2024-02-19T20:29:12.588Z,77.48
2024-02-19T20:31:44.941Z,77.45
2024-02-19T20:34:17.542Z,77.47
2024-02-19T20:36:50.075Z,77.50
2024-02-19T20:39:22.593Z,77.34
2024-02-19T20:41:55.832Z,77.53
2024-02-19T20:44:28.225Z,77.57
2024-02-19T20:47:00.809Z,77.72
2024-02-19T20:49:34.254Z,77.52
2024-02-19T20:52:07.760Z,77.75
2024-02-19T20:54:40.298Z,77.60
2024-02-19T20:57:13.234Z,77.69
2024-02-19T20:59:45.774Z,77.50
2024-02-19T21:02:18.645Z,77.58
2024-02-19T21:04:52.235Z,77.62
2024-02-19T21:07:24.981Z,77.83
2024-02-19T21:10:01.070Z,77.75
2024-02-19T21:12:33.577Z,77.60
2024-02-19T21:15:07.270Z,77.76
2024-02-19T21:17:39.888Z,77.71
2024-02-19T21:20:15.053Z,77.55
2024-02-19T21:22:47.779Z,77.66
2024-02-19T21:25:20.444Z,77.65
2024-02-19T21:27:52.885Z,77.71
2024-02-19T21:30:25.296Z,77.75
2024-02-19T21:32:57.554Z,77.85
2024-02-19T21:35:29.869Z,77.88
2024-02-19T21:38:02.239Z,77.86
2024-02-19T21:40:34.808Z,77.84
2024-02-19T21:43:08.602Z,77.97
2024-02-19T21:45:41.376Z,77.98
2024-02-19T21:48:14.027Z,78.02
2024-02-19T21:50:46.287Z,77.97
2024-02-19T21:53:18.802Z,78.20
2024-02-19T21:55:51.148Z,78.20
2024-02-19T21:58:23.920Z,78.28
2024-02-19T22:00:56.296Z,78.39
2024-02-19T22:03:28.619Z,78.35
2024-02-19T22:06:01.516Z,78.54
2024-02-19T22:08:33.870Z,78.35
2024-02-19T22:11:06.371Z,78.51
2024-02-19T22:13:38.821Z,78.71
2024-02-19T22:16:11.679Z,78.45
2024-02-19T22:18:45.785Z,78.55
2024-02-19T22:21:18.062Z,78.86
2024-02-19T22:23:50.455Z,78.74
2024-02-19T22:26:23.077Z,78.69
2024-02-19T22:28:55.718Z,78.80
2024-02-19T22:31:27.989Z,78.95
2024-02-19T22:34:00.444Z,78.91
2024-02-19T22:36:32.932Z,78.93
2024-02-19T22:39:06.698Z,78.88
2024-02-19T22:41:42.323Z,78.84
2024-02-19T22:44:14.560Z,78.92
2024-02-19T22:46:46.778Z,78.98
2024-02-19T22:49:19.133Z,79.07
2024-02-19T22:51:51.617Z,78.96
2024-02-19T22:54:23.967Z,79.07
2024-02-19T22:56:56.388Z,79.05
2024-02-19T22:59:28.737Z,79.46
2024-02-19T23:02:01.528Z,79.39
2024-02-19T23:04:34.282Z,79.52
2024-02-19T23:07:07.139Z,79.48
2024-02-19T23:09:39.526Z,79.51
2024-02-19T23:12:12.724Z,79.44
2024-02-19T23:14:45.035Z,79.49
2024-02-19T23:17:17.194Z,79.58
2024-02-19T23:19:49.508Z,79.69
2024-02-19T23:22:21.814Z,79.66
2024-02-19T23:24:55.424Z,79.70
2024-02-19T23:27:27.801Z,79.89
2024-02-19T23:30:00.012Z,79.57
2024-02-19T23:32:33.077Z,79.65
2024-02-19T23:35:06.655Z,79.64
2024-02-19T23:37:39.082Z,79.60
2024-02-19T23:40:18.935Z,79.58
2024-02-19T23:42:51.704Z,79.56
2024-02-19T23:45:24.160Z,79.64
2024-02-19T23:47:56.604Z,79.59
2024-02-19T23:50:29.709Z,79.56
2024-02-19T23:53:02.061Z,79.62
2024-02-19T23:55:34.374Z,79.57
2024-02-19T23:58:06.945Z,79.27
